Date,TemperatureHighF,TemperatureAvgF,TemperatureLowF,DewpointHighF,DewpointAvgF,DewpointLowF,HumidityHigh,HumidityAvg,HumidityLow,PressureMaxIn,PressureMinIn,WindSpeedMaxMPH,WindSpeedAvgMPH,GustSpeedMaxMPH,PrecipitationSumIn
2014-1-1,52.0,38.1,28.9,35.0,29.3,23.5,96,75,33,30.44,30.16,4,0,7,0.00
2014-1-2,48.2,42.8,36.7,46.0,39.9,34.5,97,90,73,30.16,29.57,3,0,8,0.36
2014-1-3,43.3,30.4,19.4,40.0,16.2,8.9,88,57,35,30.49,29.64,16,1,22,0.00
2014-1-4,38.2,28.6,15.8,29.1,18.6,10.8,93,69,38,30.53,30.28,5,0,7,0.00
2014-1-5,60.6,48.7,36.3,58.3,43.4,26.9,97,82,67,30.28,29.77,7,0,9,0.00
2014-1-6,62.5,46.1,18.9,59.5,36.3,-0.2,97,71,38,30.17,29.62,10,2,20,0.10
2014-1-7,25.4,16.9,9.9,11.6,-0.1,-6.5,87,49,29,30.52,30.17,10,1,13,0.00
2014-1-8,42.5,24.3,11.6,19.3,13.0,9.2,91,67,27,30.64,30.50,4,0,5,0.00
2014-1-9,54.6,32.8,21.9,29.6,20.5,9.0,88,67,16,30.59,30.49,3,0,4,0.00
2014-1-10,57.6,44.0,38.0,57.3,40.3,29.1,99,87,64,30.49,30.08,2,0,6,0.89
2014-1-11,70.3,60.0,52.4,66.5,58.4,51.8,99,95,84,30.07,29.59,14,2,31,0.25
2014-1-12,59.0,48.1,33.3,53.2,37.6,32.3,96,70,39,30.17,29.65,10,1,14,0.00
2014-1-13,61.7,45.8,29.6,44.6,36.5,28.9,98,74,44,30.19,29.96,7,1,14,0.00
2014-1-14,53.8,47.3,34.5,50.9,45.4,33.7,98,93,72,29.98,29.78,4,0,7,0.29
2014-1-15,59.7,46.1,33.7,47.6,39.5,33.2,99,80,51,29.99,29.83,7,1,14,0.01
2014-1-16,45.3,36.3,28.0,34.6,31.1,26.4,96,83,51,30.04,29.91,4,0,8,0.00
2014-1-17,56.2,40.8,26.8,39.5,30.6,25.2,97,70,40,30.04,29.84,7,1,17,0.00
2014-1-18,49.0,34.7,24.0,38.7,20.3,11.5,85,58,34,30.04,29.82,12,1,16,0.00
2014-1-19,53.8,39.4,27.2,31.0,24.9,18.0,92,59,36,30.04,29.89,12,1,17,0.00
2014-1-20,63.9,41.8,25.8,33.9,28.5,24.6,96,67,25,29.92,29.77,10,1,13,0.00
2014-1-21,54.9,37.9,26.5,37.1,31.1,23.4,94,79,46,29.84,29.52,4,0,7,0.02
2014-1-22,30.9,25.1,16.1,23.7,14.1,7.6,89,65,38,30.12,29.83,8,0,10,0.00
2014-1-23,39.4,25.9,13.8,20.5,12.2,2.2,92,61,32,30.45,30.11,7,0,13,0.00
2014-1-24,27.5,19.3,12.1,6.8,-0.3,-5.2,71,43,24,30.63,30.28,6,0,10,0.00
2014-1-25,41.3,29.5,16.1,18.6,8.6,1.5,56,42,33,30.27,29.65,13,2,17,0.00
2014-1-26,51.8,39.2,21.3,28.3,20.5,16.2,86,50,26,30.00,29.80,9,1,13,0.00
2014-1-27,65.8,50.8,34.2,38.3,30.9,2.8,63,48,25,30.11,29.76,10,1,12,0.00
2014-1-28,34.1,26.5,17.3,16.1,6.4,-2.7,90,47,24,30.33,30.11,4,0,7,0.00
2014-1-29,29.6,21.3,12.0,14.6,11.9,4.6,89,69,38,30.39,30.18,2,0,7,0.01
2014-1-30,38.3,20.0,2.5,16.5,7.7,-0.5,89,65,27,30.45,30.25,3,0,6,0.17
2014-1-31,53.1,30.4,11.4,25.7,16.5,9.0,91,63,22,30.25,30.15,4,0,7,0.02
2014-2-1,60.8,38.9,21.1,42.1,27.3,18.6,96,70,22,30.27,30.10,4,0,7,0.03
2014-2-2,64.8,50.4,41.2,49.7,45.3,40.4,98,85,54,30.10,30.01,10,1,13,0.00
2014-2-3,62.7,49.8,40.4,61.5,47.3,36.7,98,91,83,30.27,29.89,9,1,15,0.21
2014-2-4,40.6,39.2,38.4,38.2,36.4,34.6,97,90,83,30.41,30.09,5,0,7,0.34
2014-2-5,52.5,43.5,38.0,49.0,41.6,32.0,99,93,67,30.09,29.79,8,1,11,0.05
2014-2-6,42.4,37.5,31.0,32.4,27.1,23.5,89,67,50,30.33,30.07,3,0,7,0.00
2014-2-7,52.8,39.2,32.7,36.5,31.8,30.2,93,77,44,30.36,30.25,4,0,9,0.00
2014-2-8,50.4,38.0,29.7,35.0,30.8,28.1,95,78,47,30.30,30.13,4,0,4,0.00
2014-2-9,55.3,39.2,27.3,41.2,33.9,26.3,97,83,53,30.19,29.97,6,0,11,0.00
2014-2-10,42.2,36.2,31.8,36.9,32.9,28.2,98,88,58,30.26,30.00,2,0,4,0.05
2014-2-11,34.7,31.3,27.5,33.7,22.4,16.3,96,70,55,30.41,30.25,3,0,7,0.00
2014-2-12,32.4,26.6,23.6,31.4,21.2,13.9,96,81,57,30.44,29.78,5,1,8,0.00
2014-2-13,36.8,33.8,32.4,34.4,32.7,31.4,97,96,86,29.78,29.42,5,1,8,0.38
2014-2-14,60.5,43.2,29.4,35.8,31.0,26.2,95,66,27,29.80,29.64,9,2,13,0.09
2014-2-15,47.9,38.7,32.5,40.7,29.4,16.8,98,72,40,30.05,29.54,13,1,17,0.25
2014-2-16,53.3,38.2,29.6,33.9,25.1,17.8,93,61,38,30.17,30.01,11,1,13,0.00
2014-2-17,46.5,35.6,25.7,29.0,25.0,21.1,96,68,39,30.40,30.18,7,1,10,0.00
2014-2-18,66.2,47.3,35.6,40.9,30.4,17.7,85,59,16,30.22,30.10,8,1,12,0.00
2014-2-19,72.9,55.8,37.3,60.3,51.3,32.3,97,86,61,30.10,29.88,12,2,16,0.48
2014-2-20,71.9,59.9,47.2,62.3,48.5,33.8,98,68,40,30.22,29.99,7,1,13,0.00
2014-2-21,72.2,61.1,38.9,65.0,57.4,38.1,97,88,75,30.03,29.78,11,2,22,0.51
2014-2-22,66.7,46.6,33.8,42.9,33.9,22.3,98,71,19,30.20,30.03,4,0,6,0.00
2014-2-23,68.8,49.8,30.8,42.0,36.3,29.8,97,66,30,30.12,29.88,9,1,14,0.00
2014-2-24,61.6,49.3,34.0,44.4,31.4,19.8,94,56,22,30.14,29.87,8,0,12,0.00
2014-2-25,54.5,39.0,27.5,31.9,27.2,23.0,87,66,33,30.14,29.96,2,0,4,0.00
2014-2-26,49.9,37.3,26.9,31.4,27.4,23.6,89,69,38,29.99,29.79,3,0,7,0.00
2014-2-27,55.8,37.9,21.1,24.5,18.9,9.4,91,52,18,30.03,29.74,10,1,15,0.00
2014-2-28,45.5,35.1,27.3,19.3,14.9,10.7,60,44,27,30.35,30.02,6,1,9,0.00
2014-3-1,58.0,39.3,29.5,38.1,25.6,13.4,93,59,42,30.38,30.22,4,0,7,0.00
2014-3-2,72.3,53.2,30.2,48.3,40.1,29.2,97,66,38,30.24,29.90,9,1,13,0.00
2014-3-3,62.4,39.8,20.2,48.4,34.4,14.3,94,82,60,30.31,29.82,6,1,12,0.24
2014-3-4,39.6,27.8,16.1,19.5,13.5,8.3,78,56,38,30.37,30.22,5,0,10,0.01
2014-3-5,44.9,36.0,28.6,27.1,19.9,14.9,84,53,35,30.30,30.14,3,0,7,0.00
2014-3-6,42.4,34.9,29.5,32.4,25.8,16.1,95,71,50,30.39,30.13,7,1,10,0.43
2014-3-7,36.8,34.8,31.6,35.8,33.6,30.3,96,95,94,30.13,29.87,5,1,12,1.13
2014-3-8,68.7,47.0,27.4,46.8,38.3,26.7,98,76,40,30.08,29.94,10,1,12,0.00
2014-3-9,67.4,49.6,36.4,46.9,39.1,35.6,98,73,32,30.07,29.96,8,0,11,0.00
2014-3-10,75.0,52.0,30.8,44.0,34.3,25.2,97,62,16,30.02,29.78,9,1,12,0.00
2014-3-11,80.7,59.4,40.2,48.6,41.3,34.5,93,59,19,29.80,29.65,8,1,12,0.00
2014-3-12,70.8,58.7,44.6,59.7,50.4,30.6,94,75,54,29.68,29.21,12,2,20,0.09
2014-3-13,45.8,38.4,27.0,31.2,17.2,7.2,74,45,21,30.23,29.59,12,1,19,0.00
2014-3-14,61.2,42.1,21.8,36.1,21.0,15.6,91,52,17,30.35,30.09,9,2,14,0.00
2014-3-15,73.4,58.8,46.6,44.8,38.4,33.2,82,51,23,30.10,29.92,15,2,20,0.00
2014-3-16,56.3,46.8,37.4,43.5,37.6,30.9,95,73,41,30.04,29.85,6,1,13,0.05
2014-3-17,36.9,33.4,31.6,35.6,31.7,30.1,95,94,89,29.99,29.84,5,0,13,0.16
2014-3-18,37.6,34.1,30.8,36.5,33.1,29.5,96,96,95,30.18,29.93,4,0,6,0.16
2014-3-19,48.5,41.2,35.7,46.5,39.9,34.9,97,95,90,30.18,29.98,6,0,9,0.04
2014-3-20,68.4,51.2,37.5,47.7,37.1,27.3,99,67,22,30.03,29.92,10,1,15,0.00
2014-3-21,70.5,50.8,29.4,42.3,33.0,28.1,95,59,21,30.16,30.03,7,1,13,0.00
2014-3-22,77.2,58.5,43.0,49.1,40.8,35.2,89,57,25,30.08,29.90,10,2,17,0.00
2014-3-23,56.1,46.0,38.1,45.8,40.2,35.4,96,82,47,30.15,29.92,7,0,11,0.10
2014-3-24,51.1,39.5,30.5,37.5,27.2,19.1,97,66,29,30.30,30.11,4,0,8,0.00
2014-3-25,47.0,39.2,33.3,38.1,31.8,26.1,92,76,49,30.11,29.75,6,0,9,0.02
2014-3-26,48.5,37.1,27.7,30.9,19.8,11.8,94,54,23,30.34,29.93,12,1,17,0.00
2014-3-27,60.7,41.6,21.4,36.3,21.9,17.2,92,53,21,30.49,30.29,7,1,13,0.00
2014-3-28,70.3,54.9,38.2,60.5,48.9,35.5,97,81,58,30.30,30.11,9,1,15,0.10
2014-3-29,66.3,61.5,56.7,64.7,60.6,56.1,99,97,93,30.12,29.55,5,1,11,0.44
2014-3-30,63.6,48.7,40.7,63.0,39.9,32.6,98,73,52,29.92,29.53,11,2,16,0.13
2014-3-31,75.1,54.0,42.0,45.0,31.6,22.7,82,48,16,30.09,29.92,6,1,11,0.00
2014-4-1,82.8,57.6,36.4,49.0,38.6,31.5,96,60,17,30.15,29.98,5,0,10,0.00
2014-4-2,89.0,66.3,43.9,51.9,43.4,31.4,95,54,13,30.08,29.95,8,1,13,0.00
2014-4-3,80.0,61.4,49.3,58.0,51.1,45.6,91,71,39,30.07,29.89,7,0,10,0.00
2014-4-4,84.9,70.0,53.8,58.6,54.0,44.8,94,62,26,29.89,29.70,13,2,24,0.00
2014-4-5,75.0,65.3,53.1,57.8,43.6,32.1,90,48,25,30.07,29.76,7,1,12,0.00
2014-4-6,60.1,54.1,45.5,42.2,35.3,28.7,68,50,36,30.21,30.07,8,1,12,0.00
2014-4-7,63.7,51.9,44.7,61.4,48.1,32.1,97,88,45,30.11,29.66,7,1,11,0.14
2014-4-8,69.5,63.4,50.9,63.2,55.4,44.0,94,77,44,29.67,29.57,11,1,14,0.00
2014-4-9,70.0,57.3,45.2,49.1,43.9,37.7,94,65,31,30.09,29.67,6,1,11,0.01
2014-4-10,76.1,58.9,37.5,46.9,40.8,35.9,98,59,26,30.27,30.09,10,1,15,0.00
2014-4-11,80.2,66.9,48.7,52.6,45.8,41.4,86,50,27,30.21,30.03,14,2,19,0.00
2014-4-12,83.2,68.7,52.0,57.4,51.7,47.6,92,58,30,30.21,30.09,7,1,9,0.00
2014-4-13,82.7,71.1,56.7,62.4,56.6,53.1,91,62,41,30.21,30.06,8,2,13,0.00
2014-4-14,78.5,68.2,59.2,64.6,59.5,55.2,94,75,50,30.10,29.84,9,2,14,0.01
2014-4-15,71.6,63.0,42.2,67.6,60.2,37.1,96,91,74,30.00,29.59,10,2,22,1.60
2014-4-16,56.3,43.7,33.4,36.6,29.3,22.6,89,60,32,30.47,30.00,5,1,11,0.00
2014-4-17,64.0,48.2,31.6,46.2,36.8,30.4,96,68,38,30.56,30.42,6,1,10,0.00
2014-4-18,64.7,50.1,38.5,49.5,41.1,36.4,93,73,47,30.48,30.24,7,1,8,0.01
2014-4-19,53.6,49.7,45.4,48.9,46.3,43.8,96,89,72,30.24,30.14,7,1,10,0.29
2014-4-20,68.4,57.7,50.8,50.1,42.2,35.0,77,57,46,30.25,30.18,9,2,15,0.00
2014-4-21,77.0,56.7,42.3,49.2,37.8,24.5,90,56,15,30.21,29.92,3,0,10,0.00
2014-4-22,84.3,63.8,44.0,62.6,49.8,42.7,96,66,30,29.92,29.64,10,1,16,0.00
2014-4-23,73.8,62.7,49.0,58.1,42.5,29.9,96,55,21,29.97,29.66,8,1,16,0.00
2014-4-24,72.8,55.5,37.7,48.3,38.7,30.6,95,60,24,30.16,29.98,6,0,9,0.00
2014-4-25,81.1,62.2,46.0,65.6,56.1,43.8,93,82,52,30.01,29.62,10,1,23,0.28
2014-4-26,81.7,64.6,47.9,55.9,49.7,42.8,95,65,27,29.99,29.82,9,1,14,0.00
2014-4-27,86.4,68.1,49.8,59.0,52.5,47.6,92,62,29,30.01,29.90,5,0,6,0.00
2014-4-28,65.8,59.2,53.7,59.6,52.2,42.7,91,78,62,30.01,29.90,5,0,5,0.00
2014-4-29,69.0,58.8,52.9,64.1,56.2,50.7,93,91,83,30.03,29.92,2,0,4,0.10
2014-4-30,78.8,71.9,64.6,72.8,68.8,62.5,95,90,81,30.03,29.88,11,2,20,0.45
2014-5-1,79.5,72.6,67.2,68.9,64.6,59.0,91,77,51,29.89,29.76,10,2,14,0.00
2014-5-2,69.9,61.6,50.9,62.2,49.4,39.5,91,68,38,29.96,29.81,6,0,7,0.00
2014-5-3,79.0,63.3,51.3,56.6,49.9,43.1,93,67,30,29.90,29.82,10,1,13,0.00
2014-5-4,85.4,66.8,46.3,59.7,50.0,44.4,94,62,30,29.99,29.78,10,1,16,0.00
2014-5-5,74.1,62.5,53.6,57.5,53.1,48.0,93,73,52,30.03,29.83,6,0,6,0.00
2014-5-6,86.4,68.9,56.9,65.1,59.0,53.5,89,73,42,29.99,29.84,4,0,6,0.00
2014-5-7,81.4,67.7,56.6,69.5,62.5,54.3,92,84,63,30.14,29.99,2,0,3,0.00
2014-5-8,91.3,81.6,62.4,65.1,57.4,51.7,92,48,27,30.12,30.05,10,2,13,0.00
2014-5-9,90.5,74.7,57.8,67.3,61.6,55.5,94,68,36,30.14,30.00,11,2,13,0.02
2014-5-10,86.8,74.3,64.2,71.2,64.3,57.1,92,73,38,30.10,29.96,9,1,14,0.00
2014-5-11,91.2,72.8,59.9,67.3,61.4,56.3,92,71,33,30.13,30.03,3,0,5,0.00
2014-5-12,92.1,74.1,56.9,70.7,63.0,54.9,94,73,33,30.18,30.08,5,0,8,0.00
2014-5-13,93.5,77.3,63.4,72.1,66.3,61.3,95,73,37,30.13,30.05,5,1,8,0.00
2014-5-14,89.4,77.9,65.3,72.6,66.7,62.9,93,71,44,30.15,30.04,8,1,15,0.00
2014-5-15,79.9,71.1,65.2,71.2,67.2,62.7,93,88,72,30.11,29.83,9,1,16,4.04
2014-5-16,75.4,65.8,55.0,68.6,57.0,47.1,93,76,41,30.00,29.80,8,1,19,0.38
2014-5-17,73.7,60.9,46.1,54.8,46.9,40.9,92,63,35,30.16,30.00,6,0,12,0.00
2014-5-18,71.3,59.7,48.7,55.3,49.6,44.2,93,72,44,30.22,30.15,3,0,4,0.00
2014-5-19,76.0,58.5,44.0,54.1,46.4,41.7,95,70,31,30.31,30.21,3,0,6,0.00
2014-5-20,80.0,63.8,46.0,60.9,52.8,44.1,95,71,43,30.28,30.07,10,1,13,0.00
2014-5-21,87.7,75.3,60.8,66.3,62.0,56.9,88,66,43,30.08,29.90,8,1,11,0.00
2014-5-22,90.8,77.0,64.5,68.8,65.1,62.1,92,70,42,29.92,29.83,7,0,9,0.00
2014-5-23,88.1,71.9,60.8,66.1,62.0,55.1,94,74,41,30.00,29.89,4,0,11,0.00
2014-5-24,83.4,67.0,51.9,59.0,53.3,49.5,92,65,35,30.12,29.98,3,0,7,0.00
2014-5-25,83.5,68.8,53.8,66.1,57.1,51.8,94,71,37,30.18,30.10,4,0,6,0.00
2014-5-26,88.2,73.0,58.0,67.0,62.0,56.0,94,72,45,30.20,30.03,6,1,11,0.00
2014-5-27,90.8,75.7,67.8,72.2,67.9,65.4,92,79,46,30.09,29.92,6,1,14,0.06
2014-5-28,92.7,77.3,62.8,74.9,67.9,60.8,95,76,44,29.99,29.90,4,0,8,0.01
2014-5-29,75.1,69.3,65.6,68.4,65.4,63.2,92,87,76,30.10,29.95,2,0,3,0.04
2014-5-30,73.3,68.3,61.5,68.6,65.1,59.5,93,90,82,30.13,30.03,2,0,3,0.00
2014-5-31,83.2,70.4,59.2,65.4,59.9,55.3,95,72,42,30.22,30.10,2,0,5,0.00
2014-6-1,80.0,65.2,51.6,56.9,53.2,49.7,94,69,37,30.34,30.22,3,0,4,0.00
2014-6-2,84.2,65.6,48.3,60.8,53.7,46.4,95,70,35,30.30,30.10,5,0,7,0.00
2014-6-3,89.7,71.2,53.3,70.4,61.4,51.3,95,74,46,30.11,29.91,8,1,10,0.00
2014-6-4,92.7,75.2,63.4,74.2,67.5,61.3,94,79,42,29.91,29.75,18,0,23,0.03
2014-6-5,90.9,80.1,70.8,76.9,71.6,68.4,92,76,56,29.83,29.69,8,1,10,0.19
2014-6-6,84.4,74.5,64.9,69.3,66.7,62.5,93,78,55,29.95,29.81,2,0,4,0.00
2014-6-7,86.8,71.6,59.3,68.7,63.3,57.3,95,78,46,30.03,29.93,2,0,5,0.00
2014-6-8,87.2,74.8,62.8,70.3,64.4,60.8,93,72,50,29.98,29.85,6,1,11,0.00
2014-6-9,90.8,78.8,70.8,76.1,69.9,63.4,91,75,55,29.91,29.83,6,1,9,0.42
2014-6-10,95.2,78.6,68.2,76.5,70.7,66.1,94,80,45,29.93,29.86,7,1,9,0.09
2014-6-11,94.4,76.9,69.3,75.3,70.2,66.9,94,82,51,29.95,29.83,15,0,16,0.74
2014-6-12,84.8,74.8,69.0,74.9,70.9,67.2,95,88,70,29.92,29.80,3,0,11,0.58
2014-6-13,87.7,74.7,65.9,73.4,68.9,64.1,95,83,54,29.86,29.76,7,1,12,0.05
2014-6-14,88.3,74.2,61.4,70.8,65.8,56.2,94,78,35,30.05,29.85,3,0,6,0.00
2014-6-15,89.4,74.4,58.3,73.4,66.3,56.6,94,78,50,30.17,30.05,2,0,4,0.00
2014-6-16,95.2,80.3,66.3,75.1,70.4,64.5,95,75,44,30.17,30.04,4,0,9,0.00
2014-6-17,95.5,83.4,74.5,78.4,71.5,68.3,86,69,48,30.14,30.03,7,1,9,0.00
2014-6-18,96.4,84.7,74.3,76.6,71.6,67.7,87,67,45,30.08,30.00,6,1,8,0.00
2014-6-19,97.3,81.6,70.9,75.5,71.1,66.7,92,73,44,30.07,29.94,7,1,9,0.00
2014-6-20,90.4,78.1,69.7,76.2,71.3,67.6,93,81,57,30.02,29.89,10,0,15,0.67
2014-6-21,89.1,76.8,69.1,80.6,72.5,67.3,95,87,62,29.93,29.77,11,0,15,0.72
2014-6-22,84.5,74.4,69.2,74.6,70.8,67.1,94,89,70,29.97,29.80,2,0,4,0.00
2014-6-23,85.9,74.0,64.0,70.4,66.6,62.5,95,80,54,30.12,29.97,2,0,5,0.00
2014-6-24,87.2,75.6,64.9,74.3,69.3,63.1,94,82,55,30.14,30.00,4,0,9,0.00
2014-6-25,91.3,80.2,73.1,75.3,73.1,71.1,94,81,54,30.02,29.85,8,1,14,0.10
2014-6-26,93.8,79.7,69.0,76.2,72.0,67.5,96,80,49,29.97,29.88,4,0,7,0.08
2014-6-27,86.5,75.4,70.7,77.4,72.0,68.9,94,90,68,30.10,29.96,4,0,4,0.33
2014-6-28,86.3,76.3,68.6,74.5,69.1,58.2,95,80,58,30.21,30.10,3,0,6,0.00
2014-6-29,87.2,72.8,59.2,68.4,62.8,57.5,94,74,43,30.23,30.10,2,0,4,0.00
2014-6-30,90.4,76.3,63.0,72.4,67.3,61.2,94,76,50,30.12,29.95,6,0,8,0.00
2014-7-1,91.9,80.8,71.2,75.5,71.0,67.8,90,73,51,29.99,29.87,6,1,11,0.00
2014-7-2,96.3,85.7,73.8,77.2,73.0,69.5,88,67,48,29.96,29.88,8,2,12,0.00
2014-7-3,90.4,79.8,73.9,77.6,74.3,70.8,93,84,62,29.99,29.83,6,1,19,0.30
2014-7-4,88.6,77.1,66.0,71.6,67.2,62.7,93,74,44,30.15,29.84,3,0,9,0.00
2014-7-5,86.2,71.8,59.0,63.6,56.4,49.5,92,63,31,30.27,30.15,3,0,5,0.00
2014-7-6,88.3,72.5,56.6,67.0,61.2,54.9,95,71,39,30.19,30.01,7,1,9,0.00
2014-7-7,93.9,80.5,64.8,72.8,67.2,62.7,94,67,36,30.05,29.90,9,1,15,0.00
2014-7-8,98.0,86.0,74.0,73.9,68.0,57.6,88,59,27,30.00,29.84,10,2,17,0.00
2014-7-9,95.1,81.3,73.2,74.2,71.0,66.9,92,72,43,30.01,29.90,8,1,13,0.03
2014-7-10,86.5,76.1,70.2,76.4,71.9,68.1,94,87,68,30.09,29.98,5,0,10,0.47
2014-7-11,88.1,75.8,69.9,74.0,70.7,68.1,95,85,57,30.18,30.08,3,0,4,0.00
2014-7-12,91.0,76.6,64.7,73.9,69.4,63.2,96,81,53,30.21,30.11,4,0,7,0.00
2014-7-13,93.6,81.7,69.0,75.7,71.2,65.6,95,73,40,30.13,29.98,9,1,10,0.00
2014-7-14,95.0,83.9,75.3,76.3,74.1,71.7,91,74,50,30.00,29.84,9,2,16,0.00
2014-7-15,90.8,79.0,69.2,78.8,73.5,67.1,94,84,62,29.87,29.72,7,1,13,2.24
2014-7-16,83.0,73.5,65.4,72.5,68.0,63.0,95,84,57,29.92,29.77,3,0,4,0.01
2014-7-17,87.4,72.2,59.9,69.3,63.6,58.5,95,78,44,30.09,29.91,3,0,5,0.00
2014-7-18,86.9,74.1,63.9,69.1,63.4,57.4,95,73,38,30.18,30.08,2,0,6,0.00
2014-7-19,83.7,73.0,65.6,69.1,65.1,62.0,92,78,51,30.16,30.07,1,0,4,0.00
2014-7-20,83.2,74.1,68.9,73.9,70.2,66.8,94,88,69,30.12,30.04,3,0,6,0.17
2014-7-21,80.3,75.2,71.4,76.0,72.7,69.6,95,92,84,30.14,30.04,2,0,6,0.01
2014-7-22,85.2,77.0,70.3,77.3,73.0,68.5,95,88,73,30.16,30.06,1,0,2,0.00
2014-7-23,93.2,80.1,70.5,77.9,72.8,68.7,95,80,51,30.08,29.88,6,1,9,0.00
2014-7-24,89.8,77.8,67.9,77.6,72.8,66.1,94,86,59,29.94,29.78,3,0,10,1.24
2014-7-25,84.7,73.6,64.7,73.5,68.1,63.2,95,84,58,30.05,29.94,3,0,6,0.01
2014-7-26,91.1,77.1,67.5,76.6,71.2,65.7,95,84,53,30.02,29.90,6,0,9,0.00
2014-7-27,87.1,76.2,71.1,77.5,72.8,69.3,94,89,68,29.97,29.73,5,0,6,0.71
2014-7-28,89.6,81.0,68.8,74.8,67.7,63.1,92,65,43,29.84,29.69,8,1,14,0.00
2014-7-29,86.5,71.9,61.6,68.0,62.2,58.3,94,75,44,29.98,29.84,4,0,6,0.00
2014-7-30,82.6,71.3,62.2,70.9,65.3,60.5,94,82,59,30.08,29.97,2,0,6,0.00
2014-7-31,83.6,73.2,64.2,73.5,68.2,62.3,95,85,65,30.14,30.06,5,0,7,0.01
2014-8-1,76.2,69.6,65.0,71.2,67.3,63.2,95,92,77,30.14,30.04,3,0,5,0.15
2014-8-2,70.4,67.8,65.0,68.4,66.2,63.5,95,95,91,30.12,30.05,2,0,2,0.99
2014-8-3,78.7,71.2,67.3,72.8,68.7,65.8,95,92,78,30.13,30.04,2,0,5,0.00
2014-8-4,87.0,74.2,66.6,73.7,69.3,65.1,95,86,59,30.10,30.01,2,0,4,0.00
2014-8-5,89.2,76.5,67.5,76.4,70.5,66.0,95,83,56,30.05,29.94,2,0,4,0.00
2014-8-6,93.6,78.5,69.4,75.1,70.0,63.4,95,78,41,29.97,29.88,5,0,10,0.00
2014-8-7,87.0,76.3,68.0,74.2,70.2,66.5,95,83,61,30.01,29.90,1,0,3,0.00
2014-8-8,81.2,74.0,66.3,72.7,69.5,64.8,95,87,67,30.11,30.01,2,0,3,0.00
2014-8-9,73.2,67.9,63.2,70.2,65.7,61.8,95,93,85,30.12,30.04,1,0,2,0.90
2014-8-10,81.9,71.8,65.2,72.7,67.8,63.7,96,88,68,30.11,30.03,2,0,4,0.78
2014-8-11,84.9,75.2,70.4,74.3,70.5,67.7,95,86,65,30.07,29.95,6,0,7,0.05
2014-8-12,87.7,75.8,69.7,77.8,71.9,68.2,95,88,70,29.96,29.75,5,1,10,0.28
2014-8-13,84.0,75.1,64.2,70.4,67.2,62.7,96,79,52,29.95,29.78,6,0,10,0.00
2014-8-14,86.0,70.9,58.1,67.0,60.8,56.4,96,75,39,30.04,29.93,6,0,7,0.00
2014-8-15,87.0,72.9,60.1,75.3,66.8,58.7,95,83,59,30.03,29.93,2,0,6,0.00
2014-8-16,90.0,77.7,67.7,75.8,70.2,66.2,95,80,53,30.02,29.94,3,0,5,0.00
2014-8-17,90.7,77.3,68.7,76.9,70.3,65.7,95,81,46,29.99,29.92,4,0,10,0.01
2014-8-18,88.8,76.7,71.3,78.2,73.0,69.8,95,89,68,29.93,29.76,3,0,7,0.62
2014-8-19,90.3,77.2,69.9,77.3,72.8,68.4,96,87,61,29.87,29.75,3,0,7,0.00
2014-8-20,91.1,76.9,70.4,78.6,72.8,69.2,96,88,61,30.00,29.86,3,0,7,0.11
2014-8-21,93.6,80.3,69.8,78.7,73.6,68.6,96,82,52,30.05,29.96,3,0,6,0.00
2014-8-22,92.3,80.1,70.7,78.0,74.3,69.2,95,84,57,30.01,29.92,3,0,7,0.00
2014-8-23,85.7,77.9,72.7,77.1,73.9,70.6,94,88,72,29.97,29.90,2,0,4,0.01
2014-8-24,81.9,73.6,65.5,70.6,67.3,62.2,94,81,60,30.10,29.96,4,0,8,0.00
2014-8-25,78.9,68.4,58.3,69.0,63.3,56.9,95,85,67,30.11,30.07,2,0,7,0.00
2014-8-26,84.3,69.5,56.8,69.7,63.3,55.4,96,83,54,30.14,30.06,2,0,6,0.00
2014-8-27,89.7,72.0,55.2,68.3,63.3,53.8,96,77,42,30.07,29.95,2,0,4,0.00
2014-8-28,96.1,76.6,62.4,77.5,69.4,61.0,95,81,50,29.99,29.92,4,0,6,0.00
2014-8-29,83.5,77.0,73.4,75.7,72.6,70.5,94,87,73,30.16,29.99,4,0,7,0.00
2014-8-30,91.3,77.9,67.9,77.2,72.1,66.4,95,84,57,30.21,30.09,4,0,7,0.00
2014-8-31,93.0,80.7,69.7,77.6,73.3,68.2,95,80,52,30.18,30.03,7,1,9,0.00
2014-9-1,97.7,81.8,72.3,79.6,74.1,70.3,95,80,43,30.08,29.99,5,0,9,0.00
2014-9-2,98.6,81.6,71.9,75.9,72.9,68.6,95,77,39,30.05,29.91,5,1,9,0.00
2014-9-3,95.0,80.0,71.9,77.9,72.5,70.1,95,80,49,30.11,29.95,4,0,9,0.37
2014-9-4,89.0,77.1,69.9,79.5,73.2,68.4,95,88,65,30.20,30.06,5,0,9,0.24
2014-9-5,93.6,80.0,71.6,78.4,73.3,70.1,96,82,51,30.18,30.05,5,1,11,0.04
2014-9-6,91.1,78.5,69.6,76.7,72.6,68.2,96,84,58,30.08,29.91,5,1,9,0.00
2014-9-7,78.4,74.8,70.5,74.6,71.3,67.6,95,89,81,30.09,29.94,3,0,4,0.00
2014-9-8,71.6,69.9,68.4,70.4,68.4,67.1,96,95,88,30.09,30.00,2,0,4,1.31
2014-9-9,79.1,70.2,66.6,72.6,68.2,65.4,96,94,80,30.10,30.01,2,0,4,0.05
2014-9-10,84.8,73.3,66.7,73.8,69.2,65.5,97,88,63,30.13,30.01,3,0,4,0.00
2014-9-11,89.5,76.7,64.3,77.9,71.0,63.1,97,84,62,30.03,29.91,7,1,12,0.01
2014-9-12,80.5,74.5,70.6,73.6,71.4,68.0,96,90,78,30.09,29.95,2,0,3,0.00
2014-9-13,80.5,72.9,69.2,76.1,70.4,66.9,96,92,82,30.16,30.02,2,0,4,0.02
2014-9-14,72.4,66.0,61.3,67.1,61.1,57.2,94,85,69,30.26,30.16,2,0,4,0.00
2014-9-15,74.7,67.6,62.5,68.4,64.2,60.5,95,89,76,30.24,30.08,4,0,7,0.00
2014-9-16,86.1,73.6,66.6,71.1,67.8,65.4,96,84,53,30.08,29.92,1,0,3,0.00
2014-9-17,80.9,71.6,65.9,69.4,66.6,63.3,95,85,66,29.98,29.89,2,0,5,0.00
2014-9-18,83.8,69.3,58.9,67.5,62.8,57.8,96,82,53,30.06,29.92,3,0,4,0.00
2014-9-19,81.4,69.8,62.5,65.6,62.6,60.1,94,79,56,30.22,30.05,3,0,5,0.00
2014-9-20,82.7,69.7,58.0,66.3,62.2,56.9,96,79,53,30.23,29.97,4,0,4,0.00
2014-9-21,88.8,75.0,63.9,69.7,65.9,62.6,96,76,47,29.97,29.75,7,1,10,0.00
2014-9-22,79.4,69.3,62.0,69.3,61.1,54.5,96,78,45,30.14,29.82,5,0,8,0.13
2014-9-23,63.9,60.2,56.1,60.0,53.6,48.8,95,79,70,30.32,30.13,2,0,6,0.02
2014-9-24,63.8,59.0,54.5,62.6,57.8,53.1,96,96,94,30.29,30.20,3,0,6,1.49
2014-9-25,68.4,65.4,63.3,64.7,63.4,62.4,97,94,87,30.24,30.16,2,0,4,0.00
2014-9-26,78.5,67.2,59.3,66.7,63.3,58.2,97,88,60,30.21,30.14,0,0,2,0.00
2014-9-27,79.3,65.0,54.4,66.1,59.9,53.6,97,85,58,30.22,30.14,0,0,0,0.00
2014-9-28,80.8,65.3,52.0,67.7,59.8,50.9,97,84,56,30.19,30.06,0,0,0,0.00
2014-9-29,72.0,65.6,61.6,67.8,63.5,60.2,96,93,77,30.06,29.94,1,0,3,0.01
2014-9-30,78.6,66.2,58.8,68.3,63.4,57.7,96,91,70,29.95,29.85,2,0,3,0.00
2014-10-1,81.5,65.6,54.1,69.3,61.6,53.0,97,88,61,30.03,29.91,3,0,4,0.00
2014-10-2,84.5,68.7,57.0,71.8,64.3,55.9,96,87,59,30.11,30.02,4,0,5,0.00
2014-10-3,83.3,73.3,65.4,69.8,67.1,64.2,96,82,58,30.06,29.75,8,1,12,0.00
2014-10-4,75.0,66.8,49.4,70.0,55.8,38.5,96,71,34,29.89,29.66,6,1,10,0.42
2014-10-5,66.6,50.6,38.4,48.8,41.8,36.7,96,76,36,30.03,29.86,7,0,13,0.00
2014-10-6,75.5,59.0,41.7,54.9,47.5,40.7,96,70,39,30.10,30.00,8,1,13,0.00
2014-10-7,79.4,67.1,52.3,61.8,56.9,50.7,95,71,48,30.14,29.98,7,1,15,0.00
2014-10-8,83.4,69.7,58.9,67.0,62.5,57.6,96,80,51,30.03,29.91,9,1,11,0.00
2014-10-9,81.7,63.8,48.8,62.4,54.1,47.7,96,76,37,30.17,30.03,3,0,6,0.00
2014-10-10,84.1,69.4,54.9,67.7,62.2,53.8,96,80,57,30.11,29.97,7,1,13,0.31
2014-10-11,86.3,70.0,58.4,74.2,66.1,56.4,96,88,62,30.10,29.90,8,1,10,0.33
2014-10-12,62.0,59.6,57.0,60.6,58.2,55.5,96,95,93,30.23,30.09,1,0,3,0.00
2014-10-13,83.3,70.0,57.4,71.6,65.5,56.6,97,87,66,30.25,30.13,5,0,6,0.00
2014-10-14,78.0,73.7,70.5,74.5,71.4,69.0,95,93,82,30.15,29.88,12,1,16,0.49
2014-10-15,75.4,66.0,58.7,72.6,64.1,57.7,97,94,83,29.89,29.80,9,1,13,1.03
2014-10-16,71.7,60.4,53.0,61.8,56.1,52.1,97,87,60,29.84,29.75,5,0,9,0.00
2014-10-17,75.2,58.6,46.5,60.9,52.7,45.7,97,83,51,29.92,29.79,5,0,10,0.00
2014-10-18,78.5,61.2,50.3,61.5,53.0,48.0,97,77,48,29.90,29.74,5,0,9,0.00
2014-10-19,68.9,54.9,42.6,50.8,46.1,41.3,96,75,44,30.14,29.90,4,0,7,0.00
2014-10-20,71.0,52.4,38.0,54.1,44.1,37.0,97,78,38,30.17,29.97,5,1,10,0.00
2014-10-21,75.0,61.0,48.6,60.7,53.2,44.5,96,78,45,29.97,29.82,5,0,9,0.00
2014-10-22,68.4,57.5,48.9,49.8,46.4,43.3,87,67,49,30.01,29.90,4,0,7,0.00
2014-10-23,72.3,54.9,42.5,51.8,46.5,40.9,95,76,46,30.02,29.90,5,0,12,0.00
2014-10-24,72.3,54.3,42.5,58.1,47.7,41.2,96,81,44,30.06,29.94,4,0,5,0.00
2014-10-25,73.5,53.1,38.2,54.4,45.5,37.1,97,80,41,30.02,29.85,4,0,6,0.00
2014-10-26,78.1,58.8,43.4,57.9,47.4,38.3,97,72,25,29.97,29.80,7,0,12,0.00
2014-10-27,77.4,53.9,37.1,54.8,42.9,36.1,97,74,27,30.13,29.97,3,0,5,0.00
2014-10-28,84.0,62.0,44.8,66.5,55.6,43.6,97,82,47,30.15,30.02,7,1,11,0.00
2014-10-29,79.4,66.2,56.9,65.0,60.0,54.3,95,82,54,30.02,29.88,7,1,10,0.06
2014-10-30,71.0,57.1,45.7,55.2,49.8,44.3,96,79,42,30.05,29.95,2,0,4,0.00
2014-10-31,64.7,51.6,42.1,49.0,45.2,40.6,96,81,51,29.99,29.76,2,0,4,0.00
2014-11-1,50.6,47.3,44.4,46.0,44.0,39.3,96,88,75,29.92,29.68,3,0,10,0.12
2014-11-2,55.6,44.5,31.7,39.4,31.3,27.5,92,62,36,30.31,29.92,4,0,10,0.00
2014-11-3,65.1,44.1,27.9,41.9,32.8,26.7,96,72,25,30.42,30.29,6,0,8,0.00
2014-11-4,68.0,50.7,35.3,46.1,39.2,34.1,96,70,32,30.34,30.23,7,1,8,0.00
2014-11-5,71.0,55.6,42.8,56.9,49.4,41.1,96,82,54,30.29,30.14,9,1,12,0.00
2014-11-6,69.7,61.6,49.0,64.0,58.3,44.1,96,89,78,30.13,29.71,7,1,11,0.17
2014-11-7,62.8,48.8,38.0,44.8,40.2,35.9,96,75,42,30.07,29.83,8,0,10,0.01
2014-11-8,60.1,44.2,29.9,44.0,36.6,28.7,96,78,47,30.10,29.96,5,0,8,0.00
2014-11-9,61.3,48.1,36.8,49.4,43.1,35.6,96,85,56,30.04,29.93,1,0,3,0.00
2014-11-10,67.5,48.9,32.5,53.4,41.5,31.5,97,79,44,30.15,30.04,2,0,5,0.00
2014-11-11,72.2,55.5,40.6,63.4,52.4,39.5,96,90,72,30.05,29.89,2,0,3,0.00
2014-11-12,78.1,63.1,55.1,61.7,54.8,42.6,96,77,45,30.02,29.90,3,0,6,0.01
2014-11-13,60.0,50.4,45.0,50.2,40.6,37.2,79,69,55,30.08,29.98,3,0,4,0.00
2014-11-14,45.2,37.7,28.7,37.6,29.4,18.7,93,73,45,30.33,30.03,4,0,7,0.00
2014-11-15,47.7,32.6,21.7,27.1,21.3,17.9,91,67,33,30.46,30.33,4,0,7,0.00
2014-11-16,48.7,38.6,25.0,42.0,33.0,23.0,96,82,52,30.41,30.08,2,0,4,0.09
2014-11-17,68.1,53.1,43.2,65.7,51.1,35.9,97,93,72,30.07,29.59,8,1,13,0.35
2014-11-18,44.1,33.1,21.3,35.7,20.2,11.6,88,61,35,30.33,29.85,6,0,11,0.00
2014-11-19,42.1,30.6,16.3,20.9,16.3,12.4,93,60,31,30.44,30.22,5,1,11,0.00
2014-11-20,58.6,40.6,26.3,33.2,26.9,19.5,92,62,33,30.23,30.00,10,1,16,0.00
2014-11-21,50.4,35.2,24.9,29.4,23.7,16.4,95,71,26,30.45,30.15,3,0,12,0.00
2014-11-22,53.8,42.0,30.0,26.5,20.5,13.5,80,48,20,30.59,30.33,5,1,7,0.00
2014-11-23,65.2,47.1,30.4,63.7,43.4,25.0,95,87,76,30.33,29.75,8,0,13,0.56
2014-11-24,72.2,66.1,60.9,65.9,62.7,59.5,96,89,76,29.90,29.73,10,2,17,0.03
2014-11-25,64.5,57.4,49.0,61.5,52.8,43.8,96,85,63,30.11,29.89,3,0,9,0.14
2014-11-26,51.0,44.9,35.3,49.9,43.7,34.3,96,95,92,30.07,29.85,4,0,12,1.78
2014-11-27,46.8,40.7,35.1,43.2,38.0,28.3,96,90,75,30.25,30.00,4,0,7,0.03
2014-11-28,46.1,35.0,26.9,29.9,26.4,23.3,94,73,41,30.38,30.25,9,0,9,0.00
2014-11-29,53.1,36.7,25.6,34.6,29.1,24.4,96,78,41,30.36,30.25,10,1,11,0.00
2014-11-30,65.8,47.9,31.2,48.0,39.8,30.0,96,77,46,30.32,30.20,7,1,13,0.00
2014-12-1,74.3,54.2,38.0,54.3,46.8,37.0,97,80,46,30.35,30.24,6,0,8,0.00
2014-12-2,52.8,48.4,44.9,51.0,45.6,43.2,96,90,76,30.46,30.30,3,0,6,0.00
2014-12-3,58.2,49.2,45.1,55.3,47.8,44.0,96,95,88,30.33,30.15,4,0,8,0.00
2014-12-4,55.6,48.0,43.5,48.7,39.7,33.5,96,75,44,30.43,30.26,3,0,7,0.00
2014-12-5,55.9,47.8,39.1,45.5,40.9,35.6,90,78,61,30.49,30.33,2,0,3,0.00
2014-12-6,56.4,52.0,45.0,55.3,50.1,42.9,96,93,86,30.33,30.03,2,0,5,0.24
2014-12-7,53.0,45.4,36.3,51.6,34.1,23.9,95,66,48,30.45,30.09,6,1,8,0.00
2014-12-8,45.9,40.4,35.7,37.3,32.2,24.0,95,73,59,30.44,30.14,4,1,6,0.02
2014-12-9,44.1,40.4,35.4,42.8,39.2,34.1,96,95,94,30.13,29.90,2,0,7,0.72
2014-12-10,53.4,42.6,32.3,40.9,34.3,27.7,97,74,51,29.99,29.90,9,1,14,0.01
2014-12-11,49.1,36.1,25.2,28.5,25.8,23.7,95,70,38,30.12,29.97,10,1,12,0.00
2014-12-12,57.3,37.0,23.0,30.8,24.4,20.9,93,67,25,30.22,30.09,9,1,14,0.00
2014-12-13,60.6,39.2,25.2,37.1,29.0,23.7,95,73,32,30.15,30.01,8,0,9,0.00
2014-12-14,57.2,39.1,26.7,38.7,32.5,25.5,96,80,46,30.08,29.99,3,0,7,0.00
2014-12-15,61.1,41.6,29.0,44.4,35.9,27.9,96,83,51,30.14,30.04,3,0,5,0.00
2014-12-16,51.0,41.9,30.6,49.0,40.5,29.6,97,95,79,30.09,29.89,3,0,4,0.39
2014-12-17,60.7,45.4,34.9,46.8,39.4,33.6,97,82,49,30.11,29.98,7,0,8,0.01
2014-12-18,52.0,40.0,28.5,35.2,30.6,27.0,96,73,40,30.19,30.07,5,0,6,0.00
2014-12-19,54.1,43.5,33.0,35.5,31.3,28.4,94,65,39,30.22,30.11,3,0,6,0.00
2014-12-20,38.4,36.0,33.1,36.3,32.5,27.7,95,87,75,30.32,30.22,1,0,2,0.03
2014-12-21,52.0,42.1,35.3,39.1,36.4,33.8,95,81,60,30.33,30.22,3,0,5,0.00
2014-12-22,40.6,38.0,36.3,37.8,36.5,34.3,96,95,80,30.23,30.04,3,0,4,0.38
2014-12-23,46.7,41.4,37.7,45.9,40.4,36.7,97,96,96,30.10,29.95,1,0,2,0.74
2014-12-24,66.0,56.5,46.8,64.8,55.4,46.0,97,96,93,29.94,29.66,8,1,11,0.97
2014-12-25,65.3,52.6,33.0,63.2,44.2,31.7,95,76,44,30.26,29.67,10,1,13,0.06
2014-12-26,59.1,41.2,28.4,41.3,34.3,27.4,96,80,40,30.37,30.25,7,0,8,0.00
2014-12-27,63.3,44.7,28.9,44.4,37.1,27.9,97,79,40,30.35,30.16,5,0,8,0.00
2014-12-28,61.5,54.3,44.6,57.7,51.1,42.1,95,89,83,30.18,29.99,6,1,10,0.00
2014-12-29,54.8,48.5,40.8,53.7,47.4,39.8,96,96,95,30.20,30.03,2,0,5,0.56
2014-12-30,40.9,36.9,27.1,39.5,35.1,26.1,96,93,81,30.45,30.19,3,0,5,0.01
2014-12-31,46.6,32.6,24.6,33.8,25.9,21.4,96,80,37,30.48,30.36,4,0,8,0.00
2015-1-1,51.0,36.2,21.7,36.4,28.8,20.5,96,78,42,30.36,30.21,7,1,11,0.00
2015-1-2,55.2,46.6,39.1,45.0,40.7,36.4,94,81,59,30.38,30.22,2,0,3,0.00